Colliers, South Carolina
Current Conditions -  °F | °C
As of 3:53 PM on Tuesday 27 Jan 2015 (Local Time) from KDNL Reporting Station
Scattered Clouds Scattered Clouds  
Wind Chill: 53°   Ceiling: Unl
Heat Index: 53°   Visibility: 10mi
Dew Point: 26°   Wind: 12mph
Humidity: 35%   Direction: 300°WNW
Pressure: 29.9"   Gusts: 23mph
Location:  33.727°N, 82.1937°W
Report Text: KDNL 272053Z AUTO 30010G20KT 10SM SCT055 12/M03 A2990 RMK AO2 SLP125 T01171033 53004
Loading
Personal Weather Stations






























Interactive Weather Map New forecast layout! Learn more

10-Day Weather Forecast

Advertisements
Track Severe Weather on mobile